sensor_id;sensor_type;location;lat;lon;timestamp;pressure;altitude;pressure_sealevel;temperature;humidity
9839;BME280;4958;48.150;11.506;2022-09-17T00:00:57;95097.72;;;13.59;79.49
9839;BME280;4958;48.150;11.506;2022-09-17T00:03:24;95094.56;;;13.51;79.49
9839;BME280;4958;48.150;11.506;2022-09-17T00:05:57;95109.28;;;13.50;78.79
9839;BME280;4958;48.150;11.506;2022-09-17T00:08:24;95107.09;;;13.47;78.89
9839;BME280;4958;48.150;11.506;2022-09-17T00:10:51;95105.56;;;13.33;79.37
9839;BME280;4958;48.150;11.506;2022-09-17T00:13:18;95102.59;;;13.36;79.17
9839;BME280;4958;48.150;11.506;2022-09-17T00:15:45;95104.38;;;13.35;78.61
9839;BME280;4958;48.150;11.506;2022-09-17T00:18:15;95104.38;;;13.35;78.78
9839;BME280;4958;48.150;11.506;2022-09-17T00:20:43;95102.59;;;13.29;79.03
9839;BME280;4958;48.150;11.506;2022-09-17T00:23:10;95099.88;;;13.24;79.02
9839;BME280;4958;48.150;11.506;2022-09-17T00:25:37;95091.69;;;13.27;78.84
9839;BME280;4958;48.150;11.506;2022-09-17T00:28:04;95091.09;;;13.25;79.12
9839;BME280;4958;48.150;11.506;2022-09-17T00:30:31;95094.09;;;13.22;79.52
9839;BME280;4958;48.150;11.506;2022-09-17T00:32:57;95102.25;;;13.26;78.72
9839;BME280;4958;48.150;11.506;2022-09-17T00:35:26;95098.22;;;13.30;78.42
9839;BME280;4958;48.150;11.506;2022-09-17T00:37:53;95104.03;;;13.25;78.66
9839;BME280;4958;48.150;11.506;2022-09-17T00:40:20;95105.63;;;13.20;78.21
9839;BME280;4958;48.150;11.506;2022-09-17T00:42:49;95113.38;;;13.26;77.98
9839;BME280;4958;48.150;11.506;2022-09-17T00:45:17;95116.53;;;13.28;77.51
9839;BME280;4958;48.150;11.506;2022-09-17T00:47:46;95121.28;;;13.31;77.09
9839;BME280;4958;48.150;11.506;2022-09-17T00:50:16;95116.72;;;13.33;76.58
9839;BME280;4958;48.150;11.506;2022-09-17T00:52:46;95114.75;;;13.29;76.49
9839;BME280;4958;48.150;11.506;2022-09-17T00:55:17;95118.72;;;13.31;76.52
9839;BME280;4958;48.150;11.506;2022-09-17T00:57:45;95123.72;;;13.26;76.73
9839;BME280;4958;48.150;11.506;2022-09-17T01:00:12;95120.69;;;13.29;76.48
9839;BME280;4958;48.150;11.506;2022-09-17T01:02:40;95123.91;;;13.25;76.73
9839;BME280;4958;48.150;11.506;2022-09-17T01:05:08;95123.53;;;13.21;76.42
9839;BME280;4958;48.150;11.506;2022-09-17T01:08:01;95118.34;;;13.21;76.60
9839;BME280;4958;48.150;11.506;2022-09-17T01:10:45;95123.13;;;13.18;76.58
9839;BME280;4958;48.150;11.506;2022-09-17T01:13:27;95121.91;;;13.13;76.66
9839;BME280;4958;48.150;11.506;2022-09-17T01:16:01;95120.34;;;13.19;77.15
9839;BME280;4958;48.150;11.506;2022-09-17T01:18:36;95124.13;;;13.23;76.41
9839;BME280;4958;48.150;11.506;2022-09-17T01:21:26;95120.91;;;13.28;76.15
9839;BME280;4958;48.150;11.506;2022-09-17T01:24:17;95119.75;;;13.17;77.07
9839;BME280;4958;48.150;11.506;2022-09-17T01:30:07;95113.59;;;13.18;76.79
9839;BME280;4958;48.150;11.506;2022-09-17T01:32:48;95125.13;;;13.22;76.72
9839;BME280;4958;48.150;11.506;2022-09-17T01:35:22;95125.72;;;13.24;77.03
9839;BME280;4958;48.150;11.506;2022-09-17T01:37:58;95129.50;;;13.22;77.00
9839;BME280;4958;48.150;11.506;2022-09-17T01:40:29;95133.28;;;13.26;76.89
9839;BME280;4958;48.150;11.506;2022-09-17T01:43:03;95129.44;;;13.28;77.04
9839;BME280;4958;48.150;11.506;2022-09-17T01:45:37;95130.47;;;13.27;76.93
9839;BME280;4958;48.150;11.506;2022-09-17T01:48:08;95126.50;;;13.25;77.55
9839;BME280;4958;48.150;11.506;2022-09-17T01:50:38;95131.09;;;13.23;76.95
9839;BME280;4958;48.150;11.506;2022-09-17T01:53:06;95124.53;;;13.20;76.84
9839;BME280;4958;48.150;11.506;2022-09-17T01:55:37;95126.34;;;13.06;77.20
9839;BME280;4958;48.150;11.506;2022-09-17T01:58:08;95123.34;;;13.16;76.70
9839;BME280;4958;48.150;11.506;2022-09-17T02:00:39;95119.97;;;13.16;76.00
9839;BME280;4958;48.150;11.506;2022-09-17T02:03:13;95117.53;;;13.14;75.98
9839;BME280;4958;48.150;11.506;2022-09-17T02:05:44;95124.72;;;13.12;75.98
9839;BME280;4958;48.150;11.506;2022-09-17T02:08:14;95119.75;;;13.10;75.68
9839;BME280;4958;48.150;11.506;2022-09-17T02:10:43;95121.56;;;13.03;75.17
9839;BME280;4958;48.150;11.506;2022-09-17T02:13:13;95130.72;;;12.99;74.42
9839;BME280;4958;48.150;11.506;2022-09-17T02:15:46;95122.75;;;13.01;75.17
9839;BME280;4958;48.150;11.506;2022-09-17T02:18:20;95121.56;;;12.97;74.96
9839;BME280;4958;48.150;11.506;2022-09-17T02:20:51;95118.38;;;13.01;74.55
9839;BME280;4958;48.150;11.506;2022-09-17T02:23:27;95115.41;;;12.98;74.12
9839;BME280;4958;48.150;11.506;2022-09-17T02:25:57;95117.19;;;12.91;74.27
9839;BME280;4958;48.150;11.506;2022-09-17T02:28:31;95118.97;;;12.97;75.17
9839;BME280;4958;48.150;11.506;2022-09-17T02:30:59;95109.84;;;13.01;75.41
9839;BME280;4958;48.150;11.506;2022-09-17T02:33:29;95101.50;;;12.99;74.92
9839;BME280;4958;48.150;11.506;2022-09-17T02:35:57;95104.28;;;12.91;76.57
9839;BME280;4958;48.150;11.506;2022-09-17T02:38:24;95097.16;;;12.86;77.00
9839;BME280;4958;48.150;11.506;2022-09-17T02:41:10;95087.81;;;12.78;76.79
9839;BME280;4958;48.150;11.506;2022-09-17T02:43:48;95085.63;;;12.82;77.34
9839;BME280;4958;48.150;11.506;2022-09-17T02:46:29;95079.47;;;12.76;77.23
9839;BME280;4958;48.150;11.506;2022-09-17T02:49:14;95080.88;;;12.72;77.36
9839;BME280;4958;48.150;11.506;2022-09-17T02:51:51;95075.34;;;12.69;76.48
9839;BME280;4958;48.150;11.506;2022-09-17T02:54:24;95079.69;;;12.75;76.04
9839;BME280;4958;48.150;11.506;2022-09-17T02:56:58;95072.31;;;12.72;76.61
9839;BME280;4958;48.150;11.506;2022-09-17T02:59:34;95065.75;;;12.76;76.22
9839;BME280;4958;48.150;11.506;2022-09-17T03:02:10;95064.56;;;12.72;75.94
9839;BME280;4958;48.150;11.506;2022-09-17T03:04:40;95065.00;;;12.69;76.47
9839;BME280;4958;48.150;11.506;2022-09-17T03:07:08;95061.03;;;12.66;75.94
9839;BME280;4958;48.150;11.506;2022-09-17T03:09:36;95060.63;;;12.63;75.93
9839;BME280;4958;48.150;11.506;2022-09-17T03:12:03;95058.47;;;12.60;76.34
9839;BME280;4958;48.150;11.506;2022-09-17T03:14:29;95054.47;;;12.64;75.24
9839;BME280;4958;48.150;11.506;2022-09-17T03:16:56;95054.69;;;12.56;76.14
9839;BME280;4958;48.150;11.506;2022-09-17T03:19:22;95063.41;;;12.61;75.88
9839;BME280;4958;48.150;11.506;2022-09-17T03:21:50;95067.59;;;12.62;76.05
9839;BME280;4958;48.150;11.506;2022-09-17T03:24:16;95073.56;;;12.50;75.72
9839;BME280;4958;48.150;11.506;2022-09-17T03:26:43;95063.25;;;12.50;75.30
9839;BME280;4958;48.150;11.506;2022-09-17T03:29:11;95070.22;;;12.49;75.00
9839;BME280;4958;48.150;11.506;2022-09-17T03:31:38;95061.63;;;12.55;74.86
9839;BME280;4958;48.150;11.506;2022-09-17T03:34:04;95068.00;;;12.53;75.94
9839;BME280;4958;48.150;11.506;2022-09-17T03:36:31;95066.78;;;12.55;75.33
9839;BME280;4958;48.150;11.506;2022-09-17T03:39:00;95078.31;;;12.53;76.10
9839;BME280;4958;48.150;11.506;2022-09-17T03:41:26;95071.56;;;12.52;76.09
9839;BME280;4958;48.150;11.506;2022-09-17T03:43:53;95071.41;;;12.47;76.57
9839;BME280;4958;48.150;11.506;2022-09-17T03:46:20;95063.03;;;12.51;76.36
9839;BME280;4958;48.150;11.506;2022-09-17T03:48:46;95073.38;;;12.44;77.58
9839;BME280;4958;48.150;11.506;2022-09-17T03:51:12;95064.06;;;12.50;77.21
9839;BME280;4958;48.150;11.506;2022-09-17T03:53:39;95065.81;;;12.56;77.02
9839;BME280;4958;48.150;11.506;2022-09-17T03:56:07;95059.06;;;12.62;76.03
9839;BME280;4958;48.150;11.506;2022-09-17T03:58:33;95060.44;;;12.58;75.96
9839;BME280;4958;48.150;11.506;2022-09-17T04:01:00;95065.03;;;12.42;76.09
9839;BME280;4958;48.150;11.506;2022-09-17T04:03:28;95064.84;;;12.44;76.54
9839;BME280;4958;48.150;11.506;2022-09-17T04:05:55;95073.78;;;12.41;76.69
9839;BME280;4958;48.150;11.506;2022-09-17T04:08:22;95068.03;;;12.46;76.42
9839;BME280;4958;48.150;11.506;2022-09-17T04:10:48;95081.31;;;12.50;76.68
9839;BME280;4958;48.150;11.506;2022-09-17T04:13:17;95080.94;;;12.46;76.31
9839;BME280;4958;48.150;11.506;2022-09-17T04:15:44;95072.97;;;12.48;76.72
9839;BME280;4958;48.150;11.506;2022-09-17T04:18:11;95074.94;;;12.52;76.11
9839;BME280;4958;48.150;11.506;2022-09-17T04:20:38;95079.31;;;12.52;75.80
9839;BME280;4958;48.150;11.506;2022-09-17T04:23:05;95068.03;;;12.46;75.99
9839;BME280;4958;48.150;11.506;2022-09-17T04:25:32;95070.59;;;12.46;75.45
9839;BME280;4958;48.150;11.506;2022-09-17T04:27:58;95057.09;;;12.37;76.11
9839;BME280;4958;48.150;11.506;2022-09-17T04:30:26;95059.69;;;12.31;75.78
9839;BME280;4958;48.150;11.506;2022-09-17T04:32:52;95065.66;;;12.31;76.55
9839;BME280;4958;48.150;11.506;2022-09-17T04:35:19;95068.81;;;12.27;75.68
9839;BME280;4958;48.150;11.506;2022-09-17T04:37:51;95075.38;;;12.23;76.37
9839;BME280;4958;48.150;11.506;2022-09-17T04:40:17;95071.59;;;12.25;76.74
9839;BME280;4958;48.150;11.506;2022-09-17T04:42:43;95069.03;;;12.25;76.60
9839;BME280;4958;48.150;11.506;2022-09-17T04:45:10;95069.00;;;12.19;76.34
9839;BME280;4958;48.150;11.506;2022-09-17T04:47:38;95077.75;;;12.18;76.24
9839;BME280;4958;48.150;11.506;2022-09-17T04:50:06;95084.50;;;12.19;76.18
9839;BME280;4958;48.150;11.506;2022-09-17T04:52:34;95088.47;;;12.15;75.95
9839;BME280;4958;48.150;11.506;2022-09-17T04:55:01;95097.81;;;12.09;75.97
9839;BME280;4958;48.150;11.506;2022-09-17T04:57:27;95106.16;;;12.11;75.95
9839;BME280;4958;48.150;11.506;2022-09-17T04:59:54;95116.06;;;12.21;75.55
9839;BME280;4958;48.150;11.506;2022-09-17T05:02:20;95127.00;;;12.29;75.21
9839;BME280;4958;48.150;11.506;2022-09-17T05:04:48;95159.75;;;12.35;75.30
9839;BME280;4958;48.150;11.506;2022-09-17T05:07:15;95166.69;;;12.35;74.54
9839;BME280;4958;48.150;11.506;2022-09-17T05:09:41;95175.25;;;12.42;74.05
9839;BME280;4958;48.150;11.506;2022-09-17T05:12:08;95184.22;;;12.46;74.29
9839;BME280;4958;48.150;11.506;2022-09-17T05:14:34;95188.56;;;12.45;74.15
9839;BME280;4958;48.150;11.506;2022-09-17T05:17:01;95180.63;;;12.47;74.09
9839;BME280;4958;48.150;11.506;2022-09-17T05:19:27;95187.97;;;12.43;75.07
9839;BME280;4958;48.150;11.506;2022-09-17T05:21:55;95193.53;;;12.40;75.55
9839;BME280;4958;48.150;11.506;2022-09-17T05:24:22;95202.47;;;12.31;75.50
9839;BME280;4958;48.150;11.506;2022-09-17T05:26:48;95206.22;;;12.35;74.69
9839;BME280;4958;48.150;11.506;2022-09-17T05:29:15;95208.81;;;12.35;74.69
9839;BME280;4958;48.150;11.506;2022-09-17T05:31:41;95214.78;;;12.42;75.12
9839;BME280;4958;48.150;11.506;2022-09-17T05:34:08;95218.97;;;12.50;74.18
9839;BME280;4958;48.150;11.506;2022-09-17T05:36:34;95234.03;;;12.33;75.48
9839;BME280;4958;48.150;11.506;2022-09-17T05:39:02;95233.44;;;12.31;74.39
9839;BME280;4958;48.150;11.506;2022-09-17T05:41:28;95235.00;;;12.26;74.86
9839;BME280;4958;48.150;11.506;2022-09-17T05:43:55;95233.44;;;12.31;74.06
9839;BME280;4958;48.150;11.506;2022-09-17T05:46:21;95246.50;;;12.17;75.11
9839;BME280;4958;48.150;11.506;2022-09-17T05:48:47;95237.78;;;12.24;75.06
9839;BME280;4958;48.150;11.506;2022-09-17T05:51:14;95247.09;;;12.19;74.59
9839;BME280;4958;48.150;11.506;2022-09-17T05:53:40;95255.00;;;12.04;75.37
9839;BME280;4958;48.150;11.506;2022-09-17T05:56:08;95251.47;;;12.12;74.55
9839;BME280;4958;48.150;11.506;2022-09-17T05:58:34;95255.22;;;12.16;73.64
9839;BME280;4958;48.150;11.506;2022-09-17T06:01:01;95252.47;;;12.24;72.88
9839;BME280;4958;48.150;11.506;2022-09-17T06:03:27;95254.06;;;12.25;73.02
9839;BME280;4958;48.150;11.506;2022-09-17T06:05:55;95252.28;;;12.32;73.02
9839;BME280;4958;48.150;11.506;2022-09-17T06:08:22;95256.88;;;12.36;73.32
9839;BME280;4958;48.150;11.506;2022-09-17T06:10:49;95252.31;;;12.38;71.63
9839;BME280;4958;48.150;11.506;2022-09-17T06:13:17;95240.00;;;12.40;72.95
9839;BME280;4958;48.150;11.506;2022-09-17T06:15:48;95239.19;;;12.27;71.85
9839;BME280;4958;48.150;11.506;2022-09-17T06:18:15;95228.44;;;12.23;72.91
9839;BME280;4958;48.150;11.506;2022-09-17T06:20:41;95239.56;;;12.24;73.75
9839;BME280;4958;48.150;11.506;2022-09-17T06:23:08;95236.00;;;12.25;73.25
9839;BME280;4958;48.150;11.506;2022-09-17T06:25:34;95237.78;;;12.24;73.45
9839;BME280;4958;48.150;11.506;2022-09-17T06:28:00;95236.41;;;12.28;73.34
9839;BME280;4958;48.150;11.506;2022-09-17T06:30:28;95234.44;;;12.30;72.34
9839;BME280;4958;48.150;11.506;2022-09-17T06:32:55;95227.06;;;12.34;72.94
9839;BME280;4958;48.150;11.506;2022-09-17T06:35:24;95232.22;;;12.34;72.65
9839;BME280;4958;48.150;11.506;2022-09-17T06:37:50;95233.44;;;12.31;72.33
9839;BME280;4958;48.150;11.506;2022-09-17T06:40:17;95230.03;;;12.24;73.22
9839;BME280;4958;48.150;11.506;2022-09-17T06:42:43;95226.66;;;12.24;73.57
9839;BME280;4958;48.150;11.506;2022-09-17T06:45:10;95226.09;;;12.28;72.38
9839;BME280;4958;48.150;11.506;2022-09-17T06:47:37;95228.25;;;12.25;72.15
9839;BME280;4958;48.150;11.506;2022-09-17T06:50:04;95246.50;;;12.23;72.75
9839;BME280;4958;48.150;11.506;2022-09-17T06:52:31;95232.66;;;12.31;72.66
9839;BME280;4958;48.150;11.506;2022-09-17T06:54:57;95229.03;;;12.32;71.72
9839;BME280;4958;48.150;11.506;2022-09-17T06:57:24;95230.66;;;12.39;71.48
9839;BME280;4958;48.150;11.506;2022-09-17T06:59:50;95235.47;;;12.49;71.62
9839;BME280;4958;48.150;11.506;2022-09-17T07:02:16;95236.81;;;12.52;71.04
9839;BME280;4958;48.150;11.506;2022-09-17T07:04:44;95243.03;;;12.77;70.28
9839;BME280;4958;48.150;11.506;2022-09-17T07:07:13;95226.94;;;13.21;69.35
9839;BME280;4958;48.150;11.506;2022-09-17T07:09:39;95217.50;;;13.60;67.54
9839;BME280;4958;48.150;11.506;2022-09-17T07:12:07;95212.47;;;13.78;67.33
9839;BME280;4958;48.150;11.506;2022-09-17T07:14:33;95219.63;;;13.76;66.36
9839;BME280;4958;48.150;11.506;2022-09-17T07:17:00;95220.69;;;14.06;64.60
9839;BME280;4958;48.150;11.506;2022-09-17T07:19:26;95226.00;;;14.18;64.41
9839;BME280;4958;48.150;11.506;2022-09-17T07:21:54;95221.53;;;14.38;63.63
9839;BME280;4958;48.150;11.506;2022-09-17T07:24:20;95218.91;;;14.45;63.06
9839;BME280;4958;48.150;11.506;2022-09-17T07:26:48;95212.75;;;14.39;62.68
9839;BME280;4958;48.150;11.506;2022-09-17T07:29:14;95221.81;;;14.62;61.30
9839;BME280;4958;48.150;11.506;2022-09-17T07:31:41;95224.53;;;14.67;61.48
9839;BME280;4958;48.150;11.506;2022-09-17T07:34:08;95217.31;;;14.44;59.81
9839;BME280;4958;48.150;11.506;2022-09-17T07:36:35;95218.97;;;14.63;59.76
9839;BME280;4958;48.150;11.506;2022-09-17T07:39:03;95222.44;;;14.57;61.73
9839;BME280;4958;48.150;11.506;2022-09-17T07:41:29;95217.44;;;14.56;60.78
9839;BME280;4958;48.150;11.506;2022-09-17T07:43:56;95210.84;;;14.60;59.43
9839;BME280;4958;48.150;11.506;2022-09-17T07:46:22;95207.78;;;14.38;61.11
9839;BME280;4958;48.150;11.506;2022-09-17T07:48:49;95198.56;;;14.10;61.31
9839;BME280;4958;48.150;11.506;2022-09-17T07:51:16;95195.53;;;13.82;61.03
9839;BME280;4958;48.150;11.506;2022-09-17T07:53:43;95203.41;;;14.00;61.53
9839;BME280;4958;48.150;11.506;2022-09-17T07:56:11;95209.47;;;14.57;60.87
9839;BME280;4958;48.150;11.506;2022-09-17T07:58:37;95200.84;;;14.63;60.68
9839;BME280;4958;48.150;11.506;2022-09-17T08:01:06;95208.19;;;14.66;59.38
9839;BME280;4958;48.150;11.506;2022-09-17T08:03:33;95207.41;;;14.34;60.40
9839;BME280;4958;48.150;11.506;2022-09-17T08:06:01;95212.44;;;14.23;61.52
9839;BME280;4958;48.150;11.506;2022-09-17T08:08:29;95228.50;;;14.00;61.08
9839;BME280;4958;48.150;11.506;2022-09-17T08:10:59;95225.53;;;14.41;59.49
9839;BME280;4958;48.150;11.506;2022-09-17T08:13:27;95216.56;;;14.68;56.73
9839;BME280;4958;48.150;11.506;2022-09-17T08:15:57;95216.03;;;15.09;57.20
9839;BME280;4958;48.150;11.506;2022-09-17T08:18:24;95213.00;;;15.12;56.32
9839;BME280;4958;48.150;11.506;2022-09-17T08:20:51;95219.13;;;15.00;57.31
9839;BME280;4958;48.150;11.506;2022-09-17T08:23:17;95224.84;;;15.27;55.80
9839;BME280;4958;48.150;11.506;2022-09-17T08:25:53;95232.63;;;15.27;55.88
9839;BME280;4958;48.150;11.506;2022-09-17T08:28:20;95224.50;;;14.73;56.12
9839;BME280;4958;48.150;11.506;2022-09-17T08:30:48;95232.97;;;14.62;57.03
9839;BME280;4958;48.150;11.506;2022-09-17T08:33:15;95228.00;;;14.16;56.99
9839;BME280;4958;48.150;11.506;2022-09-17T08:35:41;95238.47;;;13.90;57.63
9839;BME280;4958;48.150;11.506;2022-09-17T08:38:08;95236.06;;;13.95;58.52
9839;BME280;4958;48.150;11.506;2022-09-17T08:40:40;95236.66;;;13.97;58.65
9839;BME280;4958;48.150;11.506;2022-09-17T08:43:09;95243.13;;;13.74;57.58
9839;BME280;4958;48.150;11.506;2022-09-17T08:45:40;95249.50;;;13.72;58.50
9839;BME280;4958;48.150;11.506;2022-09-17T08:48:11;95257.09;;;13.60;59.01
9839;BME280;4958;48.150;11.506;2022-09-17T08:50:39;95266.44;;;13.61;59.19
9839;BME280;4958;48.150;11.506;2022-09-17T08:53:19;95258.50;;;13.49;59.38
9839;BME280;4958;48.150;11.506;2022-09-17T08:55:58;95261.47;;;13.53;59.28
9839;BME280;4958;48.150;11.506;2022-09-17T08:58:51;95261.72;;;13.45;59.32
9839;BME280;4958;48.150;11.506;2022-09-17T09:01:31;95269.47;;;13.38;58.96
9839;BME280;4958;48.150;11.506;2022-09-17T09:04:17;95277.22;;;13.32;59.08
9839;BME280;4958;48.150;11.506;2022-09-17T09:06:52;95278.41;;;13.36;59.33
9839;BME280;4958;48.150;11.506;2022-09-17T09:09:22;95278.22;;;13.31;59.47
9839;BME280;4958;48.150;11.506;2022-09-17T09:11:57;95275.84;;;13.29;60.03
9839;BME280;4958;48.150;11.506;2022-09-17T09:14:29;95280.59;;;13.32;60.17
9839;BME280;4958;48.150;11.506;2022-09-17T09:16:57;95279.81;;;13.38;58.97
9839;BME280;4958;48.150;11.506;2022-09-17T09:19:29;95276.44;;;13.38;58.38
9839;BME280;4958;48.150;11.506;2022-09-17T09:22:01;95263.91;;;13.41;58.51
9839;BME280;4958;48.150;11.506;2022-09-17T09:24:36;95282.59;;;13.37;58.62
9839;BME280;4958;48.150;11.506;2022-09-17T09:27:14;95271.84;;;13.40;59.72
9839;BME280;4958;48.150;11.506;2022-09-17T09:29:47;95278.63;;;13.41;60.00
9839;BME280;4958;48.150;11.506;2022-09-17T09:32:25;95279.63;;;13.33;60.22
9839;BME280;4958;48.150;11.506;2022-09-17T09:35:02;95287.78;;;13.43;62.20
9839;BME280;4958;48.150;11.506;2022-09-17T09:37:40;95288.56;;;13.37;62.40
9839;BME280;4958;48.150;11.506;2022-09-17T09:40:22;95285.38;;;13.42;60.05
9839;BME280;4958;48.150;11.506;2022-09-17T09:42:52;95289.16;;;13.33;60.20
9839;BME280;4958;48.150;11.506;2022-09-17T09:45:25;95289.75;;;13.28;59.98
9839;BME280;4958;48.150;11.506;2022-09-17T09:47:56;95286.38;;;13.34;60.31
9839;BME280;4958;48.150;11.506;2022-09-17T09:50:39;95291.56;;;13.34;61.42
9839;BME280;4958;48.150;11.506;2022-09-17T09:53:14;95286.78;;;13.38;61.73
9839;BME280;4958;48.150;11.506;2022-09-17T09:56:03;95299.31;;;13.34;60.70
9839;BME280;4958;48.150;11.506;2022-09-17T09:58:34;95288.16;;;13.34;60.60
9839;BME280;4958;48.150;11.506;2022-09-17T10:01:01;95306.50;;;13.26;62.39
9839;BME280;4958;48.150;11.506;2022-09-17T10:03:29;95296.91;;;13.00;63.55
9839;BME280;4958;48.150;11.506;2022-09-17T10:05:59;95311.19;;;12.83;65.70
9839;BME280;4958;48.150;11.506;2022-09-17T10:08:27;95310.19;;;12.90;67.61
9839;BME280;4958;48.150;11.506;2022-09-17T10:10:56;95308.41;;;12.84;68.55
9839;BME280;4958;48.150;11.506;2022-09-17T10:13:23;95309.81;;;12.87;70.38
9839;BME280;4958;48.150;11.506;2022-09-17T10:15:49;95311.22;;;12.89;71.14
9839;BME280;4958;48.150;11.506;2022-09-17T10:18:17;95321.16;;;12.86;72.38
9839;BME280;4958;48.150;11.506;2022-09-17T10:20:55;95323.50;;;12.74;73.56
9839;BME280;4958;48.150;11.506;2022-09-17T10:23:25;95319.31;;;12.66;76.44
9839;BME280;4958;48.150;11.506;2022-09-17T10:25:53;95326.47;;;12.64;75.08
9839;BME280;4958;48.150;11.506;2022-09-17T10:28:31;95316.13;;;12.64;75.21
9839;BME280;4958;48.150;11.506;2022-09-17T10:31:00;95319.06;;;12.55;75.54
9839;BME280;4958;48.150;11.506;2022-09-17T10:33:29;95324.22;;;12.41;76.67
9839;BME280;4958;48.150;11.506;2022-09-17T10:36:01;95317.47;;;12.40;75.91
9839;BME280;4958;48.150;11.506;2022-09-17T10:38:31;95311.47;;;12.33;76.44
9839;BME280;4958;48.150;11.506;2022-09-17T10:41:23;95311.47;;;12.33;77.49
9839;BME280;4958;48.150;11.506;2022-09-17T10:43:50;95314.03;;;12.33;78.28
9839;BME280;4958;48.150;11.506;2022-09-17T10:46:24;95313.28;;;12.39;77.92
9839;BME280;4958;48.150;11.506;2022-09-17T10:48:56;95307.34;;;12.45;76.29
9839;BME280;4958;48.150;11.506;2022-09-17T10:51:25;95309.34;;;12.50;76.25
9839;BME280;4958;48.150;11.506;2022-09-17T10:54:30;95307.34;;;12.52;77.28
9839;BME280;4958;48.150;11.506;2022-09-17T10:57:02;95296.47;;;12.63;78.22
9839;BME280;4958;48.150;11.506;2022-09-17T10:59:51;95299.25;;;12.75;75.91
9839;BME280;4958;48.150;11.506;2022-09-17T11:05:33;95300.63;;;12.64;77.14
9839;BME280;4958;48.150;11.506;2022-09-17T11:08:07;95306.41;;;12.66;78.17
9839;BME280;4958;48.150;11.506;2022-09-17T11:10:43;95299.25;;;12.62;76.92
9839;BME280;4958;48.150;11.506;2022-09-17T11:13:19;95302.44;;;12.64;77.71
9839;BME280;4958;48.150;11.506;2022-09-17T11:16:01;95299.84;;;12.64;76.28
9839;BME280;4958;48.150;11.506;2022-09-17T11:18:39;95303.00;;;12.59;76.15
9839;BME280;4958;48.150;11.506;2022-09-17T11:21:29;95309.94;;;12.59;76.07
9839;BME280;4958;48.150;11.506;2022-09-17T11:24:29;95313.09;;;12.41;77.47
9839;BME280;4958;48.150;11.506;2022-09-17T11:27:06;95296.41;;;12.43;77.00
9839;BME280;4958;48.150;11.506;2022-09-17T11:29:43;95301.81;;;12.49;78.45
9839;BME280;4958;48.150;11.506;2022-09-17T11:32:32;95290.88;;;12.53;77.93
9839;BME280;4958;48.150;11.506;2022-09-17T11:35:03;95297.81;;;12.53;78.44
9839;BME280;4958;48.150;11.506;2022-09-17T11:37:35;95296.44;;;12.57;78.56
9839;BME280;4958;48.150;11.506;2022-09-17T11:40:07;95300.41;;;12.46;81.02
9839;BME280;4958;48.150;11.506;2022-09-17T11:42:42;95297.25;;;12.64;78.62
9839;BME280;4958;48.150;11.506;2022-09-17T11:45:12;95295.28;;;12.72;80.07
9839;BME280;4958;48.150;11.506;2022-09-17T11:47:44;95297.47;;;12.82;79.09
9839;BME280;4958;48.150;11.506;2022-09-17T11:50:17;95294.09;;;12.82;78.50
9839;BME280;4958;48.150;11.506;2022-09-17T11:52:48;95288.94;;;12.82;76.62
9839;BME280;4958;48.150;11.506;2022-09-17T11:55:25;95290.75;;;13.01;76.93
9839;BME280;4958;48.150;11.506;2022-09-17T11:57:59;95280.00;;;13.30;77.91
9839;BME280;4958;48.150;11.506;2022-09-17T12:00:29;95282.41;;;13.38;74.98
9839;BME280;4958;48.150;11.506;2022-09-17T12:02:59;95274.59;;;13.58;74.40
9839;BME280;4958;48.150;11.506;2022-09-17T12:05:30;95269.59;;;13.76;74.00
9839;BME280;4958;48.150;11.506;2022-09-17T12:08:08;95264.00;;;13.79;74.58
9839;BME280;4958;48.150;11.506;2022-09-17T12:10:41;95259.44;;;13.81;75.62
9839;BME280;4958;48.150;11.506;2022-09-17T12:13:19;95253.66;;;13.79;73.39
9839;BME280;4958;48.150;11.506;2022-09-17T12:15:50;95256.47;;;13.71;71.88
9839;BME280;4958;48.150;11.506;2022-09-17T12:18:24;95264.47;;;13.57;72.84
9839;BME280;4958;48.150;11.506;2022-09-17T12:20:54;95261.09;;;13.49;74.54
9839;BME280;4958;48.150;11.506;2022-09-17T12:23:31;95258.31;;;13.31;73.80
9839;BME280;4958;48.150;11.506;2022-09-17T12:26:06;95255.56;;;13.26;71.59
9839;BME280;4958;48.150;11.506;2022-09-17T12:28:42;95256.94;;;13.02;71.73
9839;BME280;4958;48.150;11.506;2022-09-17T12:31:17;95255.94;;;13.03;71.86
9839;BME280;4958;48.150;11.506;2022-09-17T12:33:50;95260.94;;;13.05;71.71
9839;BME280;4958;48.150;11.506;2022-09-17T12:36:28;95253.34;;;13.10;72.28
9839;BME280;4958;48.150;11.506;2022-09-17T12:39:24;95255.19;;;13.23;69.28
9839;BME280;4958;48.150;11.506;2022-09-17T12:42:01;95263.91;;;13.28;71.92
9839;BME280;4958;48.150;11.506;2022-09-17T12:44:46;95254.97;;;13.24;70.25
9839;BME280;4958;48.150;11.506;2022-09-17T12:47:32;95253.19;;;13.18;69.38
9839;BME280;4958;48.150;11.506;2022-09-17T12:50:13;95258.31;;;13.31;70.38
9839;BME280;4958;48.150;11.506;2022-09-17T12:52:51;95258.34;;;13.25;71.74
9839;BME280;4958;48.150;11.506;2022-09-17T12:55:34;95262.13;;;13.22;70.68
9839;BME280;4958;48.150;11.506;2022-09-17T12:58:08;95262.13;;;13.22;71.49
9839;BME280;4958;48.150;11.506;2022-09-17T13:00:43;95259.34;;;13.17;72.50
9839;BME280;4958;48.150;11.506;2022-09-17T13:03:17;95259.13;;;13.05;72.21
9839;BME280;4958;48.150;11.506;2022-09-17T13:06:24;95257.75;;;13.03;70.93
9839;BME280;4958;48.150;11.506;2022-09-17T13:09:09;95259.34;;;13.04;71.79
9839;BME280;4958;48.150;11.506;2022-09-17T13:12:07;95251.56;;;12.97;73.38
9839;BME280;4958;48.150;11.506;2022-09-17T13:17:32;95238.84;;;12.96;74.01
9839;BME280;4958;48.150;11.506;2022-09-17T13:20:04;95245.22;;;12.93;78.04
9839;BME280;4958;48.150;11.506;2022-09-17T13:22:43;95232.47;;;12.92;76.32
9839;BME280;4958;48.150;11.506;2022-09-17T13:25:11;95236.28;;;13.02;75.18
9839;BME280;4958;48.150;11.506;2022-09-17T13:27:40;95228.91;;;13.06;74.61
9839;BME280;4958;48.150;11.506;2022-09-17T13:30:08;95227.91;;;13.13;73.87
9839;BME280;4958;48.150;11.506;2022-09-17T13:32:50;95239.06;;;13.07;74.94
9839;BME280;4958;48.150;11.506;2022-09-17T13:35:48;95240.44;;;12.97;75.30
9839;BME280;4958;48.150;11.506;2022-09-17T13:38:17;95255.75;;;12.92;74.95
9839;BME280;4958;48.150;11.506;2022-09-17T13:40:44;95253.38;;;12.84;75.97